createdAt,value
2022-12-09T00:01:24.869Z,61.88
2022-12-09T00:03:53.732Z,62.10
2022-12-09T00:06:23.929Z,62.04
2022-12-09T00:08:53.060Z,62.01
2022-12-09T00:11:21.977Z,61.99
2022-12-09T00:13:50.955Z,62.08
2022-12-09T00:16:21.003Z,62.22
2022-12-09T00:18:50.061Z,62.31
2022-12-09T00:21:21.807Z,62.15
2022-12-09T00:23:51.247Z,62.59
2022-12-09T00:26:20.601Z,62.32
2022-12-09T00:28:50.444Z,62.39
2022-12-09T00:31:21.948Z,62.34
2022-12-09T00:33:50.804Z,62.16
2022-12-09T00:36:21.789Z,62.18
2022-12-09T00:38:50.605Z,62.28
2022-12-09T00:41:20.246Z,62.25
2022-12-09T00:43:48.965Z,62.24
2022-12-09T00:46:18.931Z,62.60
2022-12-09T00:48:49.025Z,62.35
2022-12-09T00:51:20.487Z,62.35
2022-12-09T00:53:50.453Z,62.33
2022-12-09T00:56:18.942Z,62.54
2022-12-09T00:58:47.695Z,62.30
2022-12-09T01:01:16.343Z,62.27
2022-12-09T01:03:45.017Z,62.28
2022-12-09T01:06:19.767Z,62.20
2022-12-09T01:08:48.737Z,62.36
2022-12-09T01:11:20.718Z,62.21
2022-12-09T01:13:50.118Z,62.03
2022-12-09T01:16:19.945Z,61.84
2022-12-09T01:18:49.251Z,62.04
2022-12-09T01:21:19.795Z,61.57
2022-12-09T01:23:49.432Z,61.54
2022-12-09T01:26:17.989Z,61.60
2022-12-09T01:28:46.793Z,61.69
2022-12-09T01:31:17.848Z,61.62
2022-12-09T01:33:46.953Z,61.45
2022-12-09T01:36:19.717Z,61.58
2022-12-09T01:38:48.730Z,61.64
2022-12-09T01:41:18.753Z,61.50
2022-12-09T01:43:47.256Z,61.30
2022-12-09T01:46:15.791Z,61.24
2022-12-09T01:48:47.927Z,61.34
2022-12-09T01:51:21.476Z,61.05
2022-12-09T01:53:51.911Z,60.92
2022-12-09T01:56:24.213Z,60.90
2022-12-09T01:58:55.497Z,60.80
2022-12-09T02:01:23.873Z,60.72
2022-12-09T02:03:52.634Z,60.63
2022-12-09T02:06:22.792Z,60.52
2022-12-09T02:08:52.438Z,60.79
2022-12-09T02:11:32.673Z,60.47
2022-12-09T02:14:06.315Z,60.58
2022-12-09T02:16:37.958Z,60.48
2022-12-09T02:19:17.050Z,60.45
2022-12-09T02:21:53.205Z,60.45
2022-12-09T02:24:28.657Z,60.48
2022-12-09T02:27:02.317Z,60.23
2022-12-09T02:29:45.831Z,60.05
2022-12-09T02:32:40.187Z,60.27
2022-12-09T02:35:15.691Z,60.22
2022-12-09T02:37:51.623Z,60.27
2022-12-09T02:40:24.519Z,60.33
2022-12-09T02:42:53.830Z,60.44
2022-12-09T02:45:24.538Z,60.29
2022-12-09T02:47:55.393Z,60.12
2022-12-09T02:50:29.054Z,60.10
2022-12-09T02:53:02.056Z,60.07
2022-12-09T02:55:33.917Z,60.44
2022-12-09T02:58:03.276Z,60.48
2022-12-09T03:00:31.738Z,60.34
2022-12-09T03:03:03.747Z,60.20
2022-12-09T03:05:42.918Z,60.10
2022-12-09T03:08:19.210Z,60.24
2022-12-09T03:10:56.643Z,60.34
2022-12-09T03:13:39.945Z,60.42
2022-12-09T03:16:13.952Z,60.45
2022-12-09T03:18:47.231Z,60.33
2022-12-09T03:21:22.581Z,60.35
2022-12-09T03:23:55.643Z,60.59
2022-12-09T03:26:26.468Z,60.47
2022-12-09T03:28:57.331Z,60.57
2022-12-09T03:31:30.351Z,60.42
2022-12-09T03:34:05.248Z,60.71
2022-12-09T03:36:39.111Z,60.61
2022-12-09T03:39:13.709Z,60.43
2022-12-09T03:41:46.963Z,60.55
2022-12-09T03:44:21.367Z,60.48
2022-12-09T03:46:50.578Z,60.73
2022-12-09T03:49:19.750Z,60.58
2022-12-09T03:51:55.587Z,60.43
2022-12-09T03:54:28.936Z,60.36
2022-12-09T03:56:59.570Z,60.82
2022-12-09T03:59:32.907Z,60.63
2022-12-09T04:02:01.459Z,60.78
2022-12-09T04:04:30.472Z,61.05
2022-12-09T04:07:01.048Z,61.05
2022-12-09T04:09:29.816Z,60.89
2022-12-09T04:11:58.624Z,60.94
2022-12-09T04:14:27.132Z,60.90
2022-12-09T04:16:55.613Z,60.83
2022-12-09T04:19:24.472Z,60.68
2022-12-09T04:21:52.934Z,60.59
2022-12-09T04:24:23.302Z,60.72
2022-12-09T04:26:51.594Z,60.85
2022-12-09T04:29:19.993Z,60.79
2022-12-09T04:31:48.832Z,60.76
2022-12-09T04:34:17.514Z,60.69
2022-12-09T04:36:46.192Z,60.72
2022-12-09T04:39:15.098Z,60.74
2022-12-09T04:41:44.849Z,61.15
2022-12-09T04:44:13.549Z,60.72
2022-12-09T04:46:42.068Z,60.88
2022-12-09T04:49:11.359Z,61.17
2022-12-09T04:51:40.467Z,61.19
2022-12-09T04:54:09.575Z,61.09
2022-12-09T04:56:38.256Z,60.99
2022-12-09T04:59:08.608Z,61.33
2022-12-09T05:01:37.378Z,61.23
2022-12-09T05:04:06.637Z,61.41
2022-12-09T05:06:35.294Z,61.35
2022-12-09T05:09:04.352Z,61.21
2022-12-09T05:11:33.097Z,60.55
2022-12-09T05:14:01.827Z,60.68
2022-12-09T05:16:31.817Z,61.01
2022-12-09T05:19:02.357Z,61.35
2022-12-09T05:21:31.369Z,61.72
2022-12-09T05:23:59.761Z,61.73
2022-12-09T05:26:28.902Z,61.76
2022-12-09T05:28:57.427Z,61.61
2022-12-09T05:31:26.818Z,61.59
2022-12-09T05:33:57.140Z,61.52
2022-12-09T05:36:27.775Z,61.77
2022-12-09T05:38:57.210Z,61.38
2022-12-09T05:41:26.087Z,61.82
2022-12-09T05:43:55.046Z,61.53
2022-12-09T05:46:23.829Z,61.54
2022-12-09T05:48:53.119Z,61.25
2022-12-09T05:51:27.077Z,61.33
2022-12-09T05:53:56.744Z,61.28
2022-12-09T05:56:26.920Z,61.50
2022-12-09T05:58:56.553Z,61.38
2022-12-09T06:01:27.174Z,61.57
2022-12-09T06:03:56.665Z,61.44
2022-12-09T06:06:30.933Z,61.59
2022-12-09T06:09:01.989Z,61.41
2022-12-09T06:11:30.917Z,61.29
2022-12-09T06:13:59.558Z,61.12
2022-12-09T06:16:28.173Z,61.57
2022-12-09T06:18:57.069Z,61.77
2022-12-09T06:21:27.369Z,61.99
2022-12-09T06:23:56.210Z,61.86
2022-12-09T06:26:26.977Z,61.40
2022-12-09T06:28:56.749Z,61.48
2022-12-09T06:31:25.894Z,61.68
2022-12-09T06:33:57.287Z,61.75
2022-12-09T06:36:29.370Z,61.81
2022-12-09T06:39:04.520Z,62.14
2022-12-09T06:41:38.109Z,62.09
2022-12-09T06:44:07.382Z,61.68
2022-12-09T06:46:36.902Z,61.95
2022-12-09T06:49:05.574Z,62.10
2022-12-09T06:51:35.780Z,62.22
2022-12-09T06:54:04.529Z,61.92
2022-12-09T06:56:33.467Z,61.85
2022-12-09T06:59:02.089Z,61.86
2022-12-09T07:01:30.827Z,61.96
2022-12-09T07:03:59.519Z,61.84
2022-12-09T07:06:30.889Z,61.88
2022-12-09T07:09:03.141Z,61.75
2022-12-09T07:11:31.958Z,61.83
2022-12-09T07:14:01.421Z,61.93
2022-12-09T07:16:30.309Z,61.99
2022-12-09T07:18:59.343Z,61.95
2022-12-09T07:21:28.485Z,61.68
2022-12-09T07:24:00.781Z,61.64
2022-12-09T07:26:32.663Z,61.64
2022-12-09T07:29:03.872Z,61.72
2022-12-09T07:31:32.933Z,61.64
2022-12-09T07:34:02.226Z,61.45
2022-12-09T07:36:33.633Z,61.23
2022-12-09T07:39:05.464Z,61.46
2022-12-09T07:41:36.256Z,60.98
2022-12-09T07:44:05.503Z,61.22
2022-12-09T07:46:34.215Z,61.11
2022-12-09T07:49:04.842Z,61.05
2022-12-09T07:51:34.166Z,60.93
2022-12-09T07:54:03.435Z,61.16
2022-12-09T07:56:32.924Z,60.90
2022-12-09T07:59:02.813Z,60.70
2022-12-09T08:01:32.346Z,60.77
2022-12-09T08:04:01.740Z,60.71
2022-12-09T08:06:32.305Z,60.81
2022-12-09T08:09:01.872Z,60.88
2022-12-09T08:11:33.061Z,61.05
2022-12-09T08:14:11.061Z,61.01
2022-12-09T08:16:42.049Z,60.90
2022-12-09T08:19:11.225Z,60.93
2022-12-09T08:21:39.847Z,60.75
2022-12-09T08:24:09.502Z,60.63
2022-12-09T08:26:40.215Z,60.67
2022-12-09T08:29:12.309Z,60.81
2022-12-09T08:31:43.955Z,60.83
2022-12-09T08:34:13.318Z,60.66
2022-12-09T08:36:42.692Z,60.80
2022-12-09T08:39:12.609Z,60.69
2022-12-09T08:41:41.888Z,60.66
2022-12-09T08:44:13.115Z,60.85
2022-12-09T08:46:43.799Z,61.02
2022-12-09T08:49:14.301Z,60.86
2022-12-09T08:51:42.832Z,60.84
2022-12-09T08:54:11.430Z,61.04
2022-12-09T08:56:40.360Z,61.29
2022-12-09T08:59:09.029Z,61.06
2022-12-09T09:01:39.278Z,61.23
2022-12-09T09:04:11.508Z,61.40
2022-12-09T09:06:42.651Z,61.13
2022-12-09T09:09:13.407Z,61.13
2022-12-09T09:11:43.114Z,60.90
2022-12-09T09:14:13.332Z,60.79
2022-12-09T09:16:45.289Z,60.87
2022-12-09T09:19:18.485Z,60.81
2022-12-09T09:21:47.977Z,60.66
2022-12-09T09:24:19.790Z,60.75
2022-12-09T09:26:49.317Z,60.63
2022-12-09T09:29:19.765Z,59.88
2022-12-09T09:31:54.480Z,59.53
2022-12-09T09:34:24.125Z,59.56
2022-12-09T09:36:52.912Z,59.79
2022-12-09T09:39:22.386Z,60.06
2022-12-09T09:41:54.442Z,59.70
2022-12-09T09:44:29.616Z,59.74
2022-12-09T09:47:01.264Z,59.76
2022-12-09T09:49:37.626Z,59.54
2022-12-09T09:52:09.794Z,59.48
2022-12-09T09:54:39.316Z,59.79
2022-12-09T09:57:14.972Z,59.74
2022-12-09T09:59:54.057Z,59.53
2022-12-09T10:02:39.649Z,59.27
2022-12-09T10:05:15.739Z,59.24
2022-12-09T10:07:48.906Z,59.41
2022-12-09T10:10:30.510Z,59.01
2022-12-09T10:13:17.869Z,58.75
2022-12-09T10:16:00.682Z,58.74
2022-12-09T10:18:38.731Z,59.00
2022-12-09T10:21:17.349Z,58.89
2022-12-09T10:23:47.925Z,58.71
2022-12-09T10:26:22.894Z,58.86
2022-12-09T10:28:59.343Z,58.89
2022-12-09T10:31:30.493Z,59.04
2022-12-09T10:34:01.138Z,59.11
2022-12-09T10:36:35.783Z,58.87
2022-12-09T10:39:06.821Z,58.73
2022-12-09T10:42:03.185Z,58.92
2022-12-09T10:44:32.729Z,58.91
2022-12-09T10:47:05.281Z,58.77
2022-12-09T10:49:37.040Z,58.47
2022-12-09T10:52:07.868Z,58.59
2022-12-09T10:54:39.369Z,58.75
2022-12-09T10:57:24.533Z,58.95
2022-12-09T11:00:02.859Z,58.91
2022-12-09T11:02:32.861Z,59.47
2022-12-09T11:05:24.503Z,59.33
2022-12-09T11:07:56.210Z,59.45
2022-12-09T11:10:27.015Z,59.36
2022-12-09T11:13:03.090Z,58.99
2022-12-09T11:15:36.728Z,59.15
2022-12-09T11:18:06.303Z,59.21
2022-12-09T11:20:37.739Z,59.12
2022-12-09T11:23:15.259Z,58.99
2022-12-09T11:25:54.695Z,58.81
2022-12-09T11:28:29.478Z,58.80
2022-12-09T11:33:52.548Z,58.97
2022-12-09T11:36:29.834Z,58.76
2022-12-09T11:39:12.084Z,58.54
2022-12-09T11:42:06.187Z,58.32
2022-12-09T11:44:37.590Z,58.56
2022-12-09T11:47:09.568Z,58.47
2022-12-09T11:49:48.915Z,58.46
2022-12-09T11:52:32.505Z,58.49
2022-12-09T11:55:20.208Z,58.75
2022-12-09T11:57:52.631Z,58.74
2022-12-09T12:00:24.629Z,58.70
2022-12-09T12:03:00.110Z,58.34
2022-12-09T12:05:35.421Z,58.60
2022-12-09T12:08:16.507Z,58.79
2022-12-09T12:10:48.453Z,58.67
2022-12-09T12:13:22.426Z,58.19
2022-12-09T12:15:57.113Z,58.42
2022-12-09T12:18:28.502Z,58.96
2022-12-09T12:21:43.107Z,58.24
2022-12-09T12:24:26.286Z,58.33
2022-12-09T12:27:05.383Z,58.28
2022-12-09T12:29:46.140Z,58.42
2022-12-09T12:32:28.887Z,58.52
2022-12-09T12:35:12.154Z,58.43
2022-12-09T12:37:50.998Z,58.65
2022-12-09T12:40:33.757Z,58.15
2022-12-09T12:43:30.363Z,58.15
2022-12-09T12:46:20.988Z,58.56
2022-12-09T12:49:33.679Z,58.80
2022-12-09T12:52:26.375Z,58.92
2022-12-09T12:55:06.930Z,58.99
2022-12-09T12:57:46.272Z,58.99
2022-12-09T13:00:19.196Z,59.25
2022-12-09T13:02:59.292Z,59.34
2022-12-09T13:05:36.912Z,59.12
2022-12-09T13:08:11.068Z,58.93
2022-12-09T13:10:42.370Z,59.15
2022-12-09T13:13:20.426Z,59.51
2022-12-09T13:15:51.904Z,59.25
2022-12-09T13:18:26.832Z,59.92
2022-12-09T13:20:57.418Z,59.86
2022-12-09T13:23:38.541Z,59.71
2022-12-09T13:26:21.163Z,60.05
2022-12-09T13:28:58.532Z,60.29
2022-12-09T13:31:30.803Z,60.12
2022-12-09T13:34:18.453Z,59.78
2022-12-09T13:36:48.325Z,60.00
2022-12-09T13:39:55.804Z,59.94
2022-12-09T13:42:57.495Z,60.09
2022-12-09T13:45:37.356Z,59.90
2022-12-09T13:48:28.328Z,60.04
2022-12-09T13:50:59.730Z,60.32
2022-12-09T13:53:32.786Z,60.18
2022-12-09T13:56:04.027Z,60.19
2022-12-09T13:59:17.075Z,60.22
2022-12-09T14:01:51.977Z,60.08
2022-12-09T14:04:25.642Z,60.31
2022-12-09T14:06:58.593Z,60.49
2022-12-09T14:09:35.031Z,59.94
2022-12-09T14:12:06.573Z,60.04
2022-12-09T14:14:59.708Z,59.86
2022-12-09T14:18:04.774Z,60.25
2022-12-09T14:20:39.369Z,60.41
2022-12-09T14:23:18.588Z,60.06
2022-12-09T14:26:05.942Z,60.04
2022-12-09T14:28:56.456Z,60.15
2022-12-09T14:32:00.313Z,60.15
2022-12-09T14:34:37.075Z,60.64
2022-12-09T14:37:30.078Z,60.73
2022-12-09T14:40:05.115Z,60.86
2022-12-09T14:42:44.899Z,60.30
2022-12-09T14:45:25.942Z,60.54
2022-12-09T14:47:54.600Z,60.77
2022-12-09T14:50:25.768Z,60.80
2022-12-09T14:52:57.766Z,60.57
2022-12-09T14:55:27.867Z,60.78
2022-12-09T14:57:59.476Z,60.60
2022-12-09T15:00:32.350Z,60.77
2022-12-09T15:03:31.386Z,60.98
2022-12-09T15:06:00.482Z,60.96
2022-12-09T15:08:30.908Z,60.99
2022-12-09T15:11:00.585Z,61.01
2022-12-09T15:13:29.483Z,60.77
2022-12-09T15:15:58.424Z,60.81
2022-12-09T15:18:28.829Z,60.64
2022-12-09T15:21:01.441Z,61.16
2022-12-09T15:23:34.714Z,61.12
2022-12-09T15:26:06.487Z,60.86
2022-12-09T15:28:36.086Z,60.56
2022-12-09T15:31:07.887Z,60.26
2022-12-09T15:33:41.422Z,60.55
2022-12-09T15:36:15.067Z,60.45
2022-12-09T15:38:47.680Z,60.96
2022-12-09T15:41:34.178Z,61.02
2022-12-09T15:44:08.744Z,61.14
2022-12-09T15:46:40.813Z,61.08
2022-12-09T15:49:13.999Z,60.97
2022-12-09T15:51:46.996Z,61.21
2022-12-09T15:54:20.357Z,61.10
2022-12-09T15:56:56.234Z,60.75
2022-12-09T15:59:30.593Z,60.89
2022-12-09T16:02:00.818Z,61.33
2022-12-09T16:04:31.886Z,61.23
2022-12-09T16:07:08.151Z,61.04
2022-12-09T16:09:37.510Z,61.25
2022-12-09T16:12:25.286Z,61.29
2022-12-09T16:14:53.742Z,61.12
2022-12-09T16:17:24.220Z,61.37
2022-12-09T16:19:52.828Z,61.53
2022-12-09T16:22:26.671Z,61.74
2022-12-09T16:25:17.584Z,62.14
2022-12-09T16:27:48.816Z,62.37
2022-12-09T16:30:20.269Z,62.22
2022-12-09T16:32:49.790Z,61.97
2022-12-09T16:35:23.877Z,62.12
2022-12-09T16:38:20.017Z,62.22
2022-12-09T16:41:09.964Z,62.14
2022-12-09T16:43:54.121Z,62.27
2022-12-09T16:46:41.272Z,62.04
2022-12-09T16:49:10.225Z,62.46
2022-12-09T16:51:39.770Z,61.90
2022-12-09T16:54:20.137Z,61.89
2022-12-09T16:56:49.013Z,62.11
2022-12-09T16:59:17.368Z,62.07
2022-12-09T17:01:45.812Z,62.28
2022-12-09T17:04:16.207Z,62.56
2022-12-09T17:06:44.983Z,62.72
2022-12-09T17:09:15.095Z,62.79
2022-12-09T17:11:48.591Z,63.05
2022-12-09T17:14:17.761Z,63.00
2022-12-09T17:16:46.482Z,63.20
2022-12-09T17:19:15.944Z,62.63
2022-12-09T17:21:44.504Z,62.74
2022-12-09T17:24:14.329Z,62.96
2022-12-09T17:26:42.896Z,63.40
2022-12-09T17:29:11.626Z,63.33
2022-12-09T17:31:39.936Z,63.42
2022-12-09T17:34:08.724Z,62.96
2022-12-09T17:36:44.890Z,63.40
2022-12-09T17:39:16.843Z,63.26
2022-12-09T17:41:45.291Z,63.37
2022-12-09T17:44:13.641Z,63.50
2022-12-09T17:46:42.435Z,63.33
2022-12-09T17:49:10.821Z,63.34
2022-12-09T17:51:39.309Z,63.07
2022-12-09T17:54:08.052Z,63.28
2022-12-09T17:56:38.733Z,63.00
2022-12-09T17:59:09.342Z,62.91
2022-12-09T18:01:38.720Z,63.02
2022-12-09T18:04:10.726Z,62.86
2022-12-09T18:06:41.573Z,62.64
2022-12-09T18:09:11.602Z,62.73
2022-12-09T18:11:42.143Z,62.60
2022-12-09T18:14:12.186Z,62.77
2022-12-09T18:16:41.291Z,62.32
2022-12-09T18:19:15.205Z,62.61
2022-12-09T18:21:44.167Z,62.35
2022-12-09T18:24:12.647Z,62.56
2022-12-09T18:26:42.684Z,62.54
2022-12-09T18:29:12.265Z,62.65
2022-12-09T18:31:41.617Z,62.84
2022-12-09T18:34:10.080Z,62.93
2022-12-09T18:36:38.541Z,62.74
2022-12-09T18:39:07.632Z,62.93
2022-12-09T18:41:37.352Z,62.88
2022-12-09T18:44:08.593Z,62.77
2022-12-09T18:46:38.806Z,62.91
2022-12-09T18:49:10.424Z,62.81
2022-12-09T18:51:39.975Z,63.17
2022-12-09T18:54:09.392Z,62.85
2022-12-09T18:56:38.616Z,62.59
2022-12-09T18:59:09.742Z,62.68
2022-12-09T19:01:40.791Z,62.81
2022-12-09T19:04:14.148Z,62.66
2022-12-09T19:06:45.330Z,63.13
2022-12-09T19:09:16.830Z,63.13
2022-12-09T19:11:46.649Z,63.13
2022-12-09T19:14:17.925Z,63.02
2022-12-09T19:16:46.753Z,63.37
2022-12-09T19:19:17.432Z,62.88
2022-12-09T19:21:46.718Z,63.13
2022-12-09T19:24:17.323Z,63.58
2022-12-09T19:26:46.016Z,63.47
2022-12-09T19:29:17.966Z,63.36
2022-12-09T19:31:48.028Z,63.59
2022-12-09T19:34:19.513Z,63.55
2022-12-09T19:36:49.873Z,63.40
2022-12-09T19:39:20.555Z,63.11
2022-12-09T19:41:50.346Z,63.39
2022-12-09T19:44:44.183Z,63.20
2022-12-09T19:47:11.718Z,63.23
2022-12-09T19:49:41.955Z,63.39
2022-12-09T19:52:10.761Z,63.33
2022-12-09T19:54:39.629Z,63.45
2022-12-09T19:57:08.036Z,63.25
2022-12-09T19:59:38.084Z,63.18
2022-12-09T20:02:12.140Z,62.90
2022-12-09T20:04:50.174Z,63.04
2022-12-09T20:07:20.191Z,63.40
2022-12-09T20:09:49.545Z,63.43
2022-12-09T20:12:18.370Z,63.19
2022-12-09T20:14:48.748Z,63.21
2022-12-09T20:17:18.199Z,63.11
2022-12-09T20:19:46.863Z,62.94
2022-12-09T20:22:15.322Z,63.28
2022-12-09T20:24:44.416Z,63.16
2022-12-09T20:27:12.969Z,63.09
2022-12-09T20:29:41.399Z,63.03
2022-12-09T20:32:11.493Z,62.91
2022-12-09T20:34:40.012Z,62.78
2022-12-09T20:37:10.673Z,63.02
2022-12-09T20:39:39.513Z,62.81
2022-12-09T20:42:08.073Z,62.94
2022-12-09T20:44:38.150Z,63.01
2022-12-09T20:47:06.557Z,63.22
2022-12-09T20:49:36.774Z,63.06
2022-12-09T20:52:06.069Z,63.08
2022-12-09T20:54:34.853Z,63.13
2022-12-09T20:57:03.586Z,62.89
2022-12-09T20:59:32.029Z,62.62
2022-12-09T21:02:01.856Z,62.86
2022-12-09T21:04:30.655Z,62.85
2022-12-09T21:07:00.919Z,62.85
2022-12-09T21:09:30.501Z,62.94
2022-12-09T21:12:00.588Z,62.84
2022-12-09T21:14:33.146Z,62.60
2022-12-09T21:17:02.244Z,62.58
2022-12-09T21:19:32.495Z,62.59
2022-12-09T21:22:02.573Z,62.55
2022-12-09T21:24:31.456Z,62.63
2022-12-09T21:27:01.092Z,62.36
2022-12-09T21:29:32.222Z,62.37
2022-12-09T21:32:02.102Z,62.42
2022-12-09T21:34:30.524Z,62.40
2022-12-09T21:36:59.427Z,62.34
2022-12-09T21:39:30.325Z,62.38
2022-12-09T21:41:58.799Z,62.56
2022-12-09T21:44:27.674Z,62.52
2022-12-09T21:46:56.091Z,62.61
2022-12-09T21:49:24.611Z,62.60
2022-12-09T21:51:53.586Z,62.58
2022-12-09T21:54:21.974Z,62.56
2022-12-09T21:56:51.810Z,62.49
2022-12-09T21:59:20.232Z,62.46
2022-12-09T22:01:48.622Z,62.30
2022-12-09T22:04:18.086Z,62.22
2022-12-09T22:06:48.124Z,62.40
2022-12-09T22:09:17.669Z,62.27
2022-12-09T22:11:46.019Z,62.38
2022-12-09T22:14:16.142Z,62.27
2022-12-09T22:16:46.009Z,62.18
2022-12-09T22:19:17.599Z,62.31
2022-12-09T22:21:46.547Z,62.44
2022-12-09T22:24:16.078Z,62.30
2022-12-09T22:26:45.319Z,62.38
2022-12-09T22:29:16.692Z,62.34
2022-12-09T22:31:45.716Z,62.04
2022-12-09T22:34:16.219Z,62.07
2022-12-09T22:36:44.717Z,61.96
2022-12-09T22:39:14.692Z,62.24
2022-12-09T22:41:43.926Z,61.96
2022-12-09T22:44:13.965Z,62.07
2022-12-09T22:46:43.981Z,62.00
2022-12-09T22:49:14.533Z,62.12
2022-12-09T22:51:43.489Z,62.09
2022-12-09T22:54:12.891Z,62.18
2022-12-09T22:56:43.450Z,62.15
2022-12-09T22:59:13.159Z,62.23
2022-12-09T23:01:41.957Z,62.00
2022-12-09T23:04:13.054Z,61.93
2022-12-09T23:06:42.293Z,61.96
2022-12-09T23:09:15.891Z,61.72
2022-12-09T23:11:44.229Z,61.81
2022-12-09T23:14:13.321Z,61.93
2022-12-09T23:16:41.986Z,61.84
2022-12-09T23:19:13.387Z,61.90
2022-12-09T23:21:43.282Z,61.82
2022-12-09T23:24:13.984Z,61.81
2022-12-09T23:26:43.519Z,61.65
2022-12-09T23:29:15.659Z,61.67
2022-12-09T23:31:44.707Z,61.70
2022-12-09T23:34:15.710Z,61.78
2022-12-09T23:36:45.891Z,61.55
2022-12-09T23:39:16.109Z,61.49
2022-12-09T23:41:46.440Z,61.53
2022-12-09T23:44:17.065Z,61.24
2022-12-09T23:46:46.124Z,61.63
2022-12-09T23:49:16.654Z,61.36
2022-12-09T23:51:45.815Z,61.42
2022-12-09T23:54:16.135Z,61.58
2022-12-09T23:56:50.007Z,61.71
2022-12-09T23:59:20.534Z,61.46
